sensor_id;sensor_type;location;lat;lon;timestamp;noise_LAeq;noise_LA_min;noise_LA_max;noise_LA01;noise_LA95
49732;Laerm;43666;51.442;6.778;2023-04-25T00:02:11;36.57;31.68;39.92;;
49732;Laerm;43666;51.442;6.778;2023-04-25T00:04:37;36.58;28.67;39.70;;
49732;Laerm;43666;51.442;6.778;2023-04-25T00:07:04;36.52;29.92;39.58;;
49732;Laerm;43666;51.442;6.778;2023-04-25T00:09:30;36.54;30.89;39.92;;
49732;Laerm;43666;51.442;6.778;2023-04-25T00:11:55;36.56;29.92;39.34;;
49732;Laerm;43666;51.442;6.778;2023-04-25T00:14:21;36.55;29.57;39.81;;
49732;Laerm;43666;51.442;6.778;2023-04-25T00:16:48;36.53;30.89;39.92;;
49732;Laerm;43666;51.442;6.778;2023-04-25T00:19:14;36.47;29.92;39.46;;
49732;Laerm;43666;51.442;6.778;2023-04-25T00:21:40;36.52;30.89;39.70;;
49732;Laerm;43666;51.442;6.778;2023-04-25T00:24:06;36.52;29.92;39.46;;
49732;Laerm;43666;51.442;6.778;2023-04-25T00:26:32;36.52;28.67;39.81;;
49732;Laerm;43666;51.442;6.778;2023-04-25T00:28:58;36.55;30.89;39.46;;
49732;Laerm;43666;51.442;6.778;2023-04-25T00:31:25;36.57;30.89;39.46;;
49732;Laerm;43666;51.442;6.778;2023-04-25T00:33:50;36.55;29.92;39.46;;
49732;Laerm;43666;51.442;6.778;2023-04-25T00:36:16;36.56;30.89;39.81;;
49732;Laerm;43666;51.442;6.778;2023-04-25T00:38:43;36.54;30.89;39.21;;
49732;Laerm;43666;51.442;6.778;2023-04-25T00:41:08;36.57;29.92;39.81;;
49732;Laerm;43666;51.442;6.778;2023-04-25T00:43:34;36.55;30.89;39.46;;
49732;Laerm;43666;51.442;6.778;2023-04-25T00:46:01;36.56;30.89;39.34;;
49732;Laerm;43666;51.442;6.778;2023-04-25T00:48:27;36.55;29.92;39.58;;
49732;Laerm;43666;51.442;6.778;2023-04-25T00:50:54;36.58;28.67;39.81;;
49732;Laerm;43666;51.442;6.778;2023-04-25T00:53:21;36.60;30.89;39.92;;
49732;Laerm;43666;51.442;6.778;2023-04-25T00:55:49;36.59;30.89;40.03;;
49732;Laerm;43666;51.442;6.778;2023-04-25T00:58:17;36.57;29.92;39.81;;
49732;Laerm;43666;51.442;6.778;2023-04-25T01:00:43;36.56;30.54;39.92;;
49732;Laerm;43666;51.442;6.778;2023-04-25T01:03:09;36.59;26.91;39.58;;
49732;Laerm;43666;51.442;6.778;2023-04-25T01:05:36;36.60;29.92;39.34;;
49732;Laerm;43666;51.442;6.778;2023-04-25T01:08:01;36.60;29.92;39.81;;
49732;Laerm;43666;51.442;6.778;2023-04-25T01:10:27;36.56;28.67;39.68;;
49732;Laerm;43666;51.442;6.778;2023-04-25T01:12:53;36.58;29.92;39.58;;
49732;Laerm;43666;51.442;6.778;2023-04-25T01:15:21;36.58;29.92;39.46;;
49732;Laerm;43666;51.442;6.778;2023-04-25T01:17:52;36.55;26.91;40.03;;
49732;Laerm;43666;51.442;6.778;2023-04-25T01:20:21;36.53;28.67;39.46;;
49732;Laerm;43666;51.442;6.778;2023-04-25T01:22:48;36.54;29.92;39.58;;
49732;Laerm;43666;51.442;6.778;2023-04-25T01:25:15;36.52;31.68;39.58;;
49732;Laerm;43666;51.442;6.778;2023-04-25T01:27:40;36.55;29.92;39.46;;
49732;Laerm;43666;51.442;6.778;2023-04-25T01:30:08;36.52;30.89;39.70;;
49732;Laerm;43666;51.442;6.778;2023-04-25T01:32:34;36.56;29.92;39.81;;
49732;Laerm;43666;51.442;6.778;2023-04-25T01:35:05;36.58;30.89;39.70;;
49732;Laerm;43666;51.442;6.778;2023-04-25T01:37:38;36.59;30.89;39.70;;
49732;Laerm;43666;51.442;6.778;2023-04-25T01:40:04;36.64;31.68;40.03;;
49732;Laerm;43666;51.442;6.778;2023-04-25T01:42:31;36.60;29.92;39.58;;
49732;Laerm;43666;51.442;6.778;2023-04-25T01:44:58;36.61;30.89;39.92;;
49732;Laerm;43666;51.442;6.778;2023-04-25T01:47:23;36.59;29.92;39.81;;
49732;Laerm;43666;51.442;6.778;2023-04-25T01:49:49;36.56;29.92;39.70;;
49732;Laerm;43666;51.442;6.778;2023-04-25T01:52:15;36.51;29.57;39.58;;
49732;Laerm;43666;51.442;6.778;2023-04-25T01:54:41;36.64;28.67;40.03;;
49732;Laerm;43666;51.442;6.778;2023-04-25T01:57:10;36.69;30.89;39.92;;
49732;Laerm;43666;51.442;6.778;2023-04-25T01:59:36;36.66;30.89;39.92;;
49732;Laerm;43666;51.442;6.778;2023-04-25T02:02:02;36.61;23.90;40.03;;
49732;Laerm;43666;51.442;6.778;2023-04-25T02:04:31;36.62;26.91;39.70;;
49732;Laerm;43666;51.442;6.778;2023-04-25T02:06:57;36.62;28.67;39.58;;
49732;Laerm;43666;51.442;6.778;2023-04-25T02:09:24;36.60;29.92;39.58;;
49732;Laerm;43666;51.442;6.778;2023-04-25T02:11:50;36.61;28.67;39.58;;
49732;Laerm;43666;51.442;6.778;2023-04-25T02:14:15;36.56;30.89;39.58;;
49732;Laerm;43666;51.442;6.778;2023-04-25T02:16:41;36.57;30.89;39.35;;
49732;Laerm;43666;51.442;6.778;2023-04-25T02:19:09;36.56;29.92;39.70;;
49732;Laerm;43666;51.442;6.778;2023-04-25T02:21:35;36.53;30.89;39.46;;
49732;Laerm;43666;51.442;6.778;2023-04-25T02:24:02;36.61;29.92;39.58;;
49732;Laerm;43666;51.442;6.778;2023-04-25T02:26:29;36.66;29.57;39.92;;
49732;Laerm;43666;51.442;6.778;2023-04-25T02:28:56;36.65;29.92;39.81;;
49732;Laerm;43666;51.442;6.778;2023-04-25T02:31:22;36.66;29.92;39.58;;
49732;Laerm;43666;51.442;6.778;2023-04-25T02:33:49;36.60;30.89;39.46;;
49732;Laerm;43666;51.442;6.778;2023-04-25T02:36:15;36.73;30.89;39.92;;
49732;Laerm;43666;51.442;6.778;2023-04-25T02:38:41;36.76;29.92;40.03;;
49732;Laerm;43666;51.442;6.778;2023-04-25T02:41:07;36.84;28.67;40.98;;
49732;Laerm;43666;51.442;6.778;2023-04-25T02:43:32;36.72;29.92;39.92;;
49732;Laerm;43666;51.442;6.778;2023-04-25T02:45:58;36.76;31.68;39.92;;
49732;Laerm;43666;51.442;6.778;2023-04-25T02:48:24;36.70;28.67;40.71;;
49732;Laerm;43666;51.442;6.778;2023-04-25T02:50:50;36.69;30.89;39.70;;
49732;Laerm;43666;51.442;6.778;2023-04-25T02:53:18;36.62;30.89;40.33;;
49732;Laerm;43666;51.442;6.778;2023-04-25T02:55:44;36.62;30.89;39.92;;
49732;Laerm;43666;51.442;6.778;2023-04-25T02:58:10;36.59;29.92;39.81;;
49732;Laerm;43666;51.442;6.778;2023-04-25T03:00:35;36.65;28.67;39.92;;
49732;Laerm;43666;51.442;6.778;2023-04-25T03:03:01;36.65;29.92;39.70;;
49732;Laerm;43666;51.442;6.778;2023-04-25T03:05:27;36.62;29.92;39.92;;
49732;Laerm;43666;51.442;6.778;2023-04-25T03:07:53;36.63;31.68;39.58;;
49732;Laerm;43666;51.442;6.778;2023-04-25T03:10:19;36.76;29.92;40.03;;
49732;Laerm;43666;51.442;6.778;2023-04-25T03:12:46;36.66;29.92;39.58;;
49732;Laerm;43666;51.442;6.778;2023-04-25T03:15:11;36.62;30.89;39.92;;
49732;Laerm;43666;51.442;6.778;2023-04-25T03:17:37;36.57;28.67;39.81;;
49732;Laerm;43666;51.442;6.778;2023-04-25T03:20:03;36.61;26.91;39.58;;
49732;Laerm;43666;51.442;6.778;2023-04-25T03:22:29;36.63;5.00;40.13;;
49732;Laerm;43666;51.442;6.778;2023-04-25T03:24:55;36.63;28.67;40.03;;
49732;Laerm;43666;51.442;6.778;2023-04-25T03:27:20;36.54;30.89;39.34;;
49732;Laerm;43666;51.442;6.778;2023-04-25T03:29:46;36.58;30.54;39.81;;
49732;Laerm;43666;51.442;6.778;2023-04-25T03:32:11;36.57;30.89;39.58;;
49732;Laerm;43666;51.442;6.778;2023-04-25T03:34:37;36.53;26.91;39.58;;
49732;Laerm;43666;51.442;6.778;2023-04-25T03:37:03;36.55;29.92;39.58;;
49732;Laerm;43666;51.442;6.778;2023-04-25T03:39:29;36.57;28.67;39.92;;
49732;Laerm;43666;51.442;6.778;2023-04-25T03:41:55;36.73;29.92;41.30;;
49732;Laerm;43666;51.442;6.778;2023-04-25T03:44:21;36.63;23.90;40.23;;
49732;Laerm;43666;51.442;6.778;2023-04-25T03:46:46;36.56;26.91;39.34;;
49732;Laerm;43666;51.442;6.778;2023-04-25T03:49:12;36.48;28.67;39.70;;
49732;Laerm;43666;51.442;6.778;2023-04-25T03:51:38;36.52;29.92;39.58;;
49732;Laerm;43666;51.442;6.778;2023-04-25T03:54:04;36.53;30.89;39.46;;
49732;Laerm;43666;51.442;6.778;2023-04-25T03:56:29;36.53;30.89;39.81;;
49732;Laerm;43666;51.442;6.778;2023-04-25T03:58:55;36.57;30.89;40.13;;
49732;Laerm;43666;51.442;6.778;2023-04-25T04:01:20;36.67;29.92;39.81;;
49732;Laerm;43666;51.442;6.778;2023-04-25T04:03:46;36.61;30.89;40.23;;
49732;Laerm;43666;51.442;6.778;2023-04-25T04:06:12;36.61;28.67;39.81;;
49732;Laerm;43666;51.442;6.778;2023-04-25T04:08:39;36.56;29.92;39.58;;
49732;Laerm;43666;51.442;6.778;2023-04-25T04:11:05;36.62;30.89;40.43;;
49732;Laerm;43666;51.442;6.778;2023-04-25T04:13:31;36.70;30.89;40.33;;
49732;Laerm;43666;51.442;6.778;2023-04-25T04:15:56;37.06;28.67;40.23;;
49732;Laerm;43666;51.442;6.778;2023-04-25T04:18:22;37.00;29.92;40.80;;
49732;Laerm;43666;51.442;6.778;2023-04-25T04:20:48;36.75;30.89;41.75;;
49732;Laerm;43666;51.442;6.778;2023-04-25T04:23:13;36.70;29.92;42.03;;
49732;Laerm;43666;51.442;6.778;2023-04-25T04:25:39;36.60;30.89;41.53;;
49732;Laerm;43666;51.442;6.778;2023-04-25T04:28:06;36.54;29.92;40.13;;
49732;Laerm;43666;51.442;6.778;2023-04-25T04:30:32;36.71;30.89;40.98;;
49732;Laerm;43666;51.442;6.778;2023-04-25T04:33:01;36.87;29.92;40.98;;
49732;Laerm;43666;51.442;6.778;2023-04-25T04:35:28;36.73;30.89;40.36;;
49732;Laerm;43666;51.442;6.778;2023-04-25T04:37:53;36.57;28.67;39.58;;
49732;Laerm;43666;51.442;6.778;2023-04-25T04:40:20;36.60;26.91;40.33;;
49732;Laerm;43666;51.442;6.778;2023-04-25T04:42:47;36.53;29.92;42.82;;
49732;Laerm;43666;51.442;6.778;2023-04-25T04:45:12;36.56;29.92;39.70;;
49732;Laerm;43666;51.442;6.778;2023-04-25T04:47:38;36.46;29.92;39.70;;
49732;Laerm;43666;51.442;6.778;2023-04-25T04:50:08;36.53;28.32;41.30;;
49732;Laerm;43666;51.442;6.778;2023-04-25T04:52:35;36.54;29.92;39.34;;
49732;Laerm;43666;51.442;6.778;2023-04-25T04:55:02;36.45;30.89;39.58;;
49732;Laerm;43666;51.442;6.778;2023-04-25T04:57:28;36.52;28.67;40.71;;
49732;Laerm;43666;51.442;6.778;2023-04-25T04:59:54;36.70;29.92;40.89;;
49732;Laerm;43666;51.442;6.778;2023-04-25T05:02:20;36.59;30.89;40.62;;
49732;Laerm;43666;51.442;6.778;2023-04-25T05:04:45;36.57;31.68;40.71;;
49732;Laerm;43666;51.442;6.778;2023-04-25T05:07:12;36.59;28.67;39.70;;
49732;Laerm;43666;51.442;6.778;2023-04-25T05:09:38;36.64;23.90;46.59;;
49732;Laerm;43666;51.442;6.778;2023-04-25T05:12:04;36.63;29.92;49.49;;
49732;Laerm;43666;51.442;6.778;2023-04-25T05:14:30;36.62;28.67;41.96;;
49732;Laerm;43666;51.442;6.778;2023-04-25T05:16:56;36.72;29.92;40.53;;
49732;Laerm;43666;51.442;6.778;2023-04-25T05:19:21;36.82;29.57;42.24;;
49732;Laerm;43666;51.442;6.778;2023-04-25T05:21:48;36.78;30.89;40.03;;
49732;Laerm;43666;51.442;6.778;2023-04-25T05:24:14;36.73;29.92;40.98;;
49732;Laerm;43666;51.442;6.778;2023-04-25T05:26:39;36.84;29.92;39.81;;
49732;Laerm;43666;51.442;6.778;2023-04-25T05:29:05;36.79;28.67;41.33;;
49732;Laerm;43666;51.442;6.778;2023-04-25T05:31:31;36.67;28.67;40.33;;
49732;Laerm;43666;51.442;6.778;2023-04-25T05:33:58;36.86;30.89;40.80;;
49732;Laerm;43666;51.442;6.778;2023-04-25T05:36:23;36.73;31.68;41.53;;
49732;Laerm;43666;51.442;6.778;2023-04-25T05:38:49;36.75;30.89;40.43;;
49732;Laerm;43666;51.442;6.778;2023-04-25T05:41:14;36.85;28.67;43.81;;
49732;Laerm;43666;51.442;6.778;2023-04-25T05:43:40;36.93;29.92;40.98;;
49732;Laerm;43666;51.442;6.778;2023-04-25T05:46:10;36.62;23.90;39.68;;
49732;Laerm;43666;51.442;6.778;2023-04-25T05:48:37;36.72;29.92;40.53;;
49732;Laerm;43666;51.442;6.778;2023-04-25T05:51:03;36.87;29.92;40.43;;
49732;Laerm;43666;51.442;6.778;2023-04-25T05:53:29;36.69;29.92;39.70;;
49732;Laerm;43666;51.442;6.778;2023-04-25T05:55:55;36.71;31.68;39.81;;
49732;Laerm;43666;51.442;6.778;2023-04-25T05:58:21;36.56;29.92;40.13;;
49732;Laerm;43666;51.442;6.778;2023-04-25T06:00:47;36.88;31.68;40.98;;
49732;Laerm;43666;51.442;6.778;2023-04-25T06:03:13;36.88;30.89;40.89;;
49732;Laerm;43666;51.442;6.778;2023-04-25T06:05:41;36.86;28.67;40.23;;
49732;Laerm;43666;51.442;6.778;2023-04-25T06:08:09;36.77;29.92;40.23;;
49732;Laerm;43666;51.442;6.778;2023-04-25T06:10:35;36.76;31.68;40.03;;
49732;Laerm;43666;51.442;6.778;2023-04-25T06:13:01;36.79;30.89;40.23;;
49732;Laerm;43666;51.442;6.778;2023-04-25T06:15:28;36.85;29.92;40.08;;
49732;Laerm;43666;51.442;6.778;2023-04-25T06:17:54;36.79;31.68;39.70;;
49732;Laerm;43666;51.442;6.778;2023-04-25T06:20:20;36.81;30.89;39.92;;
49732;Laerm;43666;51.442;6.778;2023-04-25T06:22:48;36.79;29.92;40.33;;
49732;Laerm;43666;51.442;6.778;2023-04-25T06:25:14;36.75;31.68;40.03;;
49732;Laerm;43666;51.442;6.778;2023-04-25T06:27:40;36.77;28.67;40.03;;
49732;Laerm;43666;51.442;6.778;2023-04-25T06:30:06;36.73;30.89;40.03;;
49732;Laerm;43666;51.442;6.778;2023-04-25T06:32:32;36.83;30.89;40.03;;
49732;Laerm;43666;51.442;6.778;2023-04-25T06:34:59;36.71;29.92;39.70;;
49732;Laerm;43666;51.442;6.778;2023-04-25T06:37:25;36.68;31.68;39.92;;
49732;Laerm;43666;51.442;6.778;2023-04-25T06:39:51;36.65;30.89;40.03;;
49732;Laerm;43666;51.442;6.778;2023-04-25T06:42:17;36.82;29.92;42.35;;
49732;Laerm;43666;51.442;6.778;2023-04-25T06:44:42;36.99;28.67;40.98;;
49732;Laerm;43666;51.442;6.778;2023-04-25T06:47:08;36.89;29.92;40.23;;
49732;Laerm;43666;51.442;6.778;2023-04-25T06:49:36;36.82;29.92;40.03;;
49732;Laerm;43666;51.442;6.778;2023-04-25T06:52:02;36.93;31.68;42.09;;
49732;Laerm;43666;51.442;6.778;2023-04-25T06:54:28;36.81;30.89;40.13;;
49732;Laerm;43666;51.442;6.778;2023-04-25T06:56:55;36.79;29.92;40.43;;
49732;Laerm;43666;51.442;6.778;2023-04-25T06:59:21;36.76;29.92;39.92;;
49732;Laerm;43666;51.442;6.778;2023-04-25T07:01:48;36.77;31.68;40.03;;
49732;Laerm;43666;51.442;6.778;2023-04-25T07:04:13;36.78;30.89;40.13;;
49732;Laerm;43666;51.442;6.778;2023-04-25T07:06:39;36.95;28.67;40.23;;
49732;Laerm;43666;51.442;6.778;2023-04-25T07:09:10;37.04;29.92;41.38;;
49732;Laerm;43666;51.442;6.778;2023-04-25T07:11:36;36.93;30.89;42.71;;
49732;Laerm;43666;51.442;6.778;2023-04-25T07:14:02;36.85;29.57;40.89;;
49732;Laerm;43666;51.442;6.778;2023-04-25T07:16:28;37.04;30.89;41.38;;
49732;Laerm;43666;51.442;6.778;2023-04-25T07:18:53;36.92;30.89;41.53;;
49732;Laerm;43666;51.442;6.778;2023-04-25T07:21:19;36.92;29.92;40.53;;
49732;Laerm;43666;51.442;6.778;2023-04-25T07:23:45;36.89;30.89;40.33;;
49732;Laerm;43666;51.442;6.778;2023-04-25T07:26:11;36.82;29.92;39.92;;
49732;Laerm;43666;51.442;6.778;2023-04-25T07:28:37;36.75;29.57;40.23;;
49732;Laerm;43666;51.442;6.778;2023-04-25T07:31:02;36.78;29.92;40.13;;
49732;Laerm;43666;51.442;6.778;2023-04-25T07:33:28;36.80;29.92;39.92;;
49732;Laerm;43666;51.442;6.778;2023-04-25T07:35:54;36.83;29.92;40.03;;
49732;Laerm;43666;51.442;6.778;2023-04-25T07:38:20;36.76;26.91;39.92;;
49732;Laerm;43666;51.442;6.778;2023-04-25T07:40:49;36.74;31.68;39.92;;
49732;Laerm;43666;51.442;6.778;2023-04-25T07:43:15;36.74;29.92;39.70;;
49732;Laerm;43666;51.442;6.778;2023-04-25T07:45:42;36.76;30.89;39.92;;
49732;Laerm;43666;51.442;6.778;2023-04-25T07:48:09;36.83;31.68;39.58;;
49732;Laerm;43666;51.442;6.778;2023-04-25T07:50:36;36.84;31.68;39.92;;
49732;Laerm;43666;51.442;6.778;2023-04-25T07:53:01;36.94;31.68;40.23;;
49732;Laerm;43666;51.442;6.778;2023-04-25T07:55:27;36.97;29.92;40.03;;
49732;Laerm;43666;51.442;6.778;2023-04-25T07:57:53;36.94;32.35;39.58;;
49732;Laerm;43666;51.442;6.778;2023-04-25T08:00:18;36.99;31.33;39.92;;
49732;Laerm;43666;51.442;6.778;2023-04-25T08:02:44;36.91;31.68;39.89;;
49732;Laerm;43666;51.442;6.778;2023-04-25T08:05:10;36.98;30.89;39.70;;
49732;Laerm;43666;51.442;6.778;2023-04-25T08:07:40;36.94;32.35;39.58;;
49732;Laerm;43666;51.442;6.778;2023-04-25T08:10:06;36.84;30.89;40.03;;
49732;Laerm;43666;51.442;6.778;2023-04-25T08:12:32;36.89;30.89;40.08;;
49732;Laerm;43666;51.442;6.778;2023-04-25T08:14:57;36.87;31.68;39.58;;
49732;Laerm;43666;51.442;6.778;2023-04-25T08:17:23;37.06;31.68;39.92;;
49732;Laerm;43666;51.442;6.778;2023-04-25T08:19:48;37.02;31.68;39.99;;
49732;Laerm;43666;51.442;6.778;2023-04-25T08:22:14;36.95;31.68;39.70;;
49732;Laerm;43666;51.442;6.778;2023-04-25T08:24:41;36.94;32.35;39.58;;
49732;Laerm;43666;51.442;6.778;2023-04-25T08:27:06;37.02;31.68;40.23;;
49732;Laerm;43666;51.442;6.778;2023-04-25T08:29:33;37.02;31.68;40.03;;
49732;Laerm;43666;51.442;6.778;2023-04-25T08:31:59;36.97;31.68;40.13;;
49732;Laerm;43666;51.442;6.778;2023-04-25T08:34:26;37.12;32.35;40.13;;
49732;Laerm;43666;51.442;6.778;2023-04-25T08:36:52;37.03;30.89;40.03;;
49732;Laerm;43666;51.442;6.778;2023-04-25T08:39:18;37.11;31.68;39.70;;
49732;Laerm;43666;51.442;6.778;2023-04-25T08:41:44;37.16;32.35;39.92;;
49732;Laerm;43666;51.442;6.778;2023-04-25T08:44:10;37.14;32.35;40.33;;
49732;Laerm;43666;51.442;6.778;2023-04-25T08:46:39;37.22;32.93;40.23;;
49732;Laerm;43666;51.442;6.778;2023-04-25T08:49:08;37.22;32.00;40.03;;
49732;Laerm;43666;51.442;6.778;2023-04-25T08:51:35;37.21;32.35;42.82;;
49732;Laerm;43666;51.442;6.778;2023-04-25T08:54:11;37.09;32.35;40.03;;
49732;Laerm;43666;51.442;6.778;2023-04-25T08:56:44;37.06;32.35;40.03;;
49732;Laerm;43666;51.442;6.778;2023-04-25T08:59:11;37.07;32.93;39.81;;
49732;Laerm;43666;51.442;6.778;2023-04-25T09:01:36;37.15;32.93;40.33;;
49732;Laerm;43666;51.442;6.778;2023-04-25T09:04:02;37.14;30.89;39.70;;
49732;Laerm;43666;51.442;6.778;2023-04-25T09:06:28;37.20;5.00;42.41;;
49732;Laerm;43666;51.442;6.778;2023-04-25T09:08:54;37.20;32.93;39.81;;
49732;Laerm;43666;51.442;6.778;2023-04-25T09:11:20;37.23;32.35;39.81;;
49732;Laerm;43666;51.442;6.778;2023-04-25T09:13:47;37.28;32.93;40.23;;
49732;Laerm;43666;51.442;6.778;2023-04-25T09:16:12;37.33;32.35;40.13;;
49732;Laerm;43666;51.442;6.778;2023-04-25T09:18:42;37.34;32.93;40.33;;
49732;Laerm;43666;51.442;6.778;2023-04-25T09:21:10;37.34;32.35;39.92;;
49732;Laerm;43666;51.442;6.778;2023-04-25T09:23:40;37.35;31.68;40.23;;
49732;Laerm;43666;51.442;6.778;2023-04-25T09:26:06;37.31;33.44;39.81;;
49732;Laerm;43666;51.442;6.778;2023-04-25T09:28:33;37.35;32.93;40.53;;
49732;Laerm;43666;51.442;6.778;2023-04-25T09:31:00;37.36;33.44;39.92;;
49732;Laerm;43666;51.442;6.778;2023-04-25T09:33:30;37.48;33.44;40.53;;
49732;Laerm;43666;51.442;6.778;2023-04-25T09:36:04;37.48;32.93;40.03;;
49732;Laerm;43666;51.442;6.778;2023-04-25T09:38:31;37.48;32.35;39.92;;
49732;Laerm;43666;51.442;6.778;2023-04-25T09:40:57;37.48;33.44;40.33;;
49732;Laerm;43666;51.442;6.778;2023-04-25T09:43:24;37.56;33.44;40.03;;
49732;Laerm;43666;51.442;6.778;2023-04-25T09:45:50;37.58;32.93;40.43;;
49732;Laerm;43666;51.442;6.778;2023-04-25T09:48:20;37.56;32.35;40.33;;
49732;Laerm;43666;51.442;6.778;2023-04-25T09:53:35;37.44;32.93;40.71;;
49732;Laerm;43666;51.442;6.778;2023-04-25T09:56:03;37.48;30.89;40.13;;
49732;Laerm;43666;51.442;6.778;2023-04-25T09:58:29;37.51;33.44;40.23;;
49732;Laerm;43666;51.442;6.778;2023-04-25T10:00:57;37.55;32.93;40.13;;
49732;Laerm;43666;51.442;6.778;2023-04-25T10:03:25;37.58;32.93;40.13;;
49732;Laerm;43666;51.442;6.778;2023-04-25T10:05:51;37.56;32.35;40.13;;
49732;Laerm;43666;51.442;6.778;2023-04-25T10:08:18;37.57;33.44;40.53;;
49732;Laerm;43666;51.442;6.778;2023-04-25T10:10:45;37.62;32.58;40.43;;
49732;Laerm;43666;51.442;6.778;2023-04-25T10:13:12;37.58;33.44;40.33;;
49732;Laerm;43666;51.442;6.778;2023-04-25T10:15:39;37.56;33.90;40.43;;
49732;Laerm;43666;51.442;6.778;2023-04-25T10:18:05;37.59;33.44;40.33;;
49732;Laerm;43666;51.442;6.778;2023-04-25T10:20:32;37.62;33.90;40.33;;
49732;Laerm;43666;51.442;6.778;2023-04-25T10:23:03;37.63;33.44;40.71;;
49732;Laerm;43666;51.442;6.778;2023-04-25T10:25:30;37.59;32.35;40.33;;
49732;Laerm;43666;51.442;6.778;2023-04-25T10:27:56;37.54;32.93;40.33;;
49732;Laerm;43666;51.442;6.778;2023-04-25T10:30:21;37.65;32.93;40.03;;
49732;Laerm;43666;51.442;6.778;2023-04-25T10:32:47;37.65;32.35;40.33;;
49732;Laerm;43666;51.442;6.778;2023-04-25T10:35:15;37.62;30.89;40.53;;
49732;Laerm;43666;51.442;6.778;2023-04-25T10:37:57;37.69;29.92;40.62;;
49732;Laerm;43666;51.442;6.778;2023-04-25T10:40:24;37.74;33.44;40.54;;
49732;Laerm;43666;51.442;6.778;2023-04-25T10:42:51;37.68;33.90;40.33;;
49732;Laerm;43666;51.442;6.778;2023-04-25T10:45:17;37.68;33.44;40.33;;
49732;Laerm;43666;51.442;6.778;2023-04-25T10:47:43;37.65;33.44;40.23;;
49732;Laerm;43666;51.442;6.778;2023-04-25T10:50:10;37.66;33.44;40.98;;
49732;Laerm;43666;51.442;6.778;2023-04-25T10:52:36;37.61;33.44;40.43;;
49732;Laerm;43666;51.442;6.778;2023-04-25T10:55:04;37.61;33.90;40.53;;
49732;Laerm;43666;51.442;6.778;2023-04-25T11:00:18;37.56;32.93;40.53;;
49732;Laerm;43666;51.442;6.778;2023-04-25T11:02:46;37.56;33.90;40.13;;
49732;Laerm;43666;51.442;6.778;2023-04-25T11:05:34;37.63;32.93;40.62;;
49732;Laerm;43666;51.442;6.778;2023-04-25T11:07:58;37.70;33.90;40.13;;
49732;Laerm;43666;51.442;6.778;2023-04-25T11:10:27;37.81;33.90;40.43;;
49732;Laerm;43666;51.442;6.778;2023-04-25T11:12:53;37.81;34.31;40.33;;
49732;Laerm;43666;51.442;6.778;2023-04-25T11:15:19;37.84;34.31;40.53;;
49732;Laerm;43666;51.442;6.778;2023-04-25T11:17:45;37.86;33.90;40.33;;
49732;Laerm;43666;51.442;6.778;2023-04-25T11:20:12;37.83;33.90;40.13;;
49732;Laerm;43666;51.442;6.778;2023-04-25T11:22:39;37.87;34.69;40.53;;
49732;Laerm;43666;51.442;6.778;2023-04-25T11:25:07;37.94;34.69;40.23;;
49732;Laerm;43666;51.442;6.778;2023-04-25T11:27:33;38.04;34.31;40.33;;
49732;Laerm;43666;51.442;6.778;2023-04-25T11:30:10;38.02;34.69;40.33;;
49732;Laerm;43666;51.442;6.778;2023-04-25T11:32:35;38.05;34.31;40.43;;
49732;Laerm;43666;51.442;6.778;2023-04-25T11:35:01;38.04;35.04;40.03;;
49732;Laerm;43666;51.442;6.778;2023-04-25T11:37:27;38.05;35.04;40.33;;
49732;Laerm;43666;51.442;6.778;2023-04-25T11:39:53;38.04;35.04;40.43;;
49732;Laerm;43666;51.442;6.778;2023-04-25T11:42:19;38.00;34.69;40.33;;
49732;Laerm;43666;51.442;6.778;2023-04-25T11:44:45;38.00;34.69;40.71;;
49732;Laerm;43666;51.442;6.778;2023-04-25T11:47:11;38.08;35.04;40.43;;
49732;Laerm;43666;51.442;6.778;2023-04-25T11:49:37;38.13;34.31;40.89;;
49732;Laerm;43666;51.442;6.778;2023-04-25T11:52:02;38.09;35.04;40.62;;
49732;Laerm;43666;51.442;6.778;2023-04-25T11:54:28;38.03;35.04;40.71;;
49732;Laerm;43666;51.442;6.778;2023-04-25T11:56:54;38.01;34.69;40.71;;
49732;Laerm;43666;51.442;6.778;2023-04-25T11:59:23;37.80;33.90;41.22;;
49732;Laerm;43666;51.442;6.778;2023-04-25T12:01:49;37.77;33.44;43.39;;
49732;Laerm;43666;51.442;6.778;2023-04-25T12:04:16;37.63;33.44;40.80;;
49732;Laerm;43666;51.442;6.778;2023-04-25T12:06:42;37.85;33.90;41.46;;
49732;Laerm;43666;51.442;6.778;2023-04-25T12:09:09;37.71;33.90;40.80;;
49732;Laerm;43666;51.442;6.778;2023-04-25T12:14:10;37.75;34.31;40.33;;
49732;Laerm;43666;51.442;6.778;2023-04-25T12:16:39;37.70;33.90;40.33;;
49732;Laerm;43666;51.442;6.778;2023-04-25T12:19:09;37.71;34.31;40.43;;
49732;Laerm;43666;51.442;6.778;2023-04-25T12:21:35;37.80;34.31;40.23;;
49732;Laerm;43666;51.442;6.778;2023-04-25T12:24:11;37.88;34.31;40.23;;
49732;Laerm;43666;51.442;6.778;2023-04-25T12:26:47;37.85;34.31;40.98;;
49732;Laerm;43666;51.442;6.778;2023-04-25T12:29:17;37.96;33.44;40.80;;
49732;Laerm;43666;51.442;6.778;2023-04-25T12:31:42;38.03;34.31;40.62;;
49732;Laerm;43666;51.442;6.778;2023-04-25T12:34:08;38.16;35.04;40.53;;
49732;Laerm;43666;51.442;6.778;2023-04-25T12:36:34;38.36;35.36;40.80;;
49732;Laerm;43666;51.442;6.778;2023-04-25T12:39:00;38.61;35.94;41.22;;
49732;Laerm;43666;51.442;6.778;2023-04-25T12:41:30;38.68;35.94;40.71;;
49732;Laerm;43666;51.442;6.778;2023-04-25T12:43:55;38.66;35.04;40.98;;
49732;Laerm;43666;51.442;6.778;2023-04-25T12:46:21;38.90;35.94;41.06;;
49732;Laerm;43666;51.442;6.778;2023-04-25T12:48:49;39.04;36.45;41.14;;
49732;Laerm;43666;51.442;6.778;2023-04-25T12:51:14;39.08;36.45;41.14;;
49732;Laerm;43666;51.442;6.778;2023-04-25T12:53:40;39.18;36.45;41.46;;
49732;Laerm;43666;51.442;6.778;2023-04-25T12:56:07;39.00;36.45;41.33;;
49732;Laerm;43666;51.442;6.778;2023-04-25T12:58:33;38.97;36.45;41.14;;
49732;Laerm;43666;51.442;6.778;2023-04-25T13:00:59;38.86;35.94;40.89;;
49732;Laerm;43666;51.442;6.778;2023-04-25T13:03:25;38.75;36.20;40.80;;
49732;Laerm;43666;51.442;6.778;2023-04-25T13:05:51;38.65;35.36;40.89;;
49732;Laerm;43666;51.442;6.778;2023-04-25T13:08:20;38.42;34.69;40.43;;
49732;Laerm;43666;51.442;6.778;2023-04-25T13:10:47;38.47;35.66;40.62;;
49732;Laerm;43666;51.442;6.778;2023-04-25T13:13:12;38.44;35.36;40.62;;
49732;Laerm;43666;51.442;6.778;2023-04-25T13:15:38;38.41;35.04;40.80;;
49732;Laerm;43666;51.442;6.778;2023-04-25T13:18:04;38.31;34.69;40.53;;
49732;Laerm;43666;51.442;6.778;2023-04-25T13:20:30;38.35;35.59;40.62;;
49732;Laerm;43666;51.442;6.778;2023-04-25T13:22:56;38.40;35.66;40.89;;
49732;Laerm;43666;51.442;6.778;2023-04-25T13:25:22;38.56;35.66;40.89;;
49732;Laerm;43666;51.442;6.778;2023-04-25T13:27:48;38.71;36.45;40.80;;
49732;Laerm;43666;51.442;6.778;2023-04-25T13:30:14;38.91;35.94;41.46;;
49732;Laerm;43666;51.442;6.778;2023-04-25T13:32:39;38.95;36.45;41.06;;
49732;Laerm;43666;51.442;6.778;2023-04-25T13:35:11;39.01;36.20;41.30;;
49732;Laerm;43666;51.442;6.778;2023-04-25T13:37:38;39.04;36.45;41.14;;
49732;Laerm;43666;51.442;6.778;2023-04-25T13:40:05;39.16;36.69;41.06;;
49732;Laerm;43666;51.442;6.778;2023-04-25T13:42:34;39.35;36.91;41.38;;
49732;Laerm;43666;51.442;6.778;2023-04-25T13:45:00;39.33;36.91;41.30;;
49732;Laerm;43666;51.442;6.778;2023-04-25T13:47:26;39.23;36.69;41.46;;
49732;Laerm;43666;51.442;6.778;2023-04-25T13:49:52;39.17;36.69;40.98;;